sensor_id;sensor_type;location;lat;lon;timestamp;pressure;altitude;pressure_sealevel;temperature;humidity
24486;BME280;13449;49.374;8.584;2023-03-03T00:01:30;100815.16;;;0.67;94.83
24486;BME280;13449;49.374;8.584;2023-03-03T00:03:58;100811.84;;;0.63;93.44
24486;BME280;13449;49.374;8.584;2023-03-03T00:06:25;100808.16;;;0.64;95.33
24486;BME280;13449;49.374;8.584;2023-03-03T00:08:52;100812.00;;;0.73;97.22
24486;BME280;13449;49.374;8.584;2023-03-03T00:11:18;100806.97;;;0.68;98.10
24486;BME280;13449;49.374;8.584;2023-03-03T00:13:50;100807.72;;;0.70;98.58
24486;BME280;13449;49.374;8.584;2023-03-03T00:16:49;100810.59;;;0.56;96.78
24486;BME280;13449;49.374;8.584;2023-03-03T00:19:18;100817.88;;;0.54;96.14
24486;BME280;13449;49.374;8.584;2023-03-03T00:21:48;100812.81;;;0.62;97.17
24486;BME280;13449;49.374;8.584;2023-03-03T00:24:22;100820.66;;;0.53;96.59
24486;BME280;13449;49.374;8.584;2023-03-03T00:26:59;100820.94;;;0.61;97.72
24486;BME280;13449;49.374;8.584;2023-03-03T00:29:32;100817.22;;;0.63;97.04
24486;BME280;13449;49.374;8.584;2023-03-03T00:32:20;100821.47;;;0.66;97.97
24486;BME280;13449;49.374;8.584;2023-03-03T00:34:49;100819.19;;;0.72;100.00
24486;BME280;13449;49.374;8.584;2023-03-03T00:37:32;100821.25;;;0.69;100.00
24486;BME280;13449;49.374;8.584;2023-03-03T00:40:19;100827.94;;;0.63;99.94
24486;BME280;13449;49.374;8.584;2023-03-03T00:42:58;100833.13;;;0.54;97.35
24486;BME280;13449;49.374;8.584;2023-03-03T00:45:37;100828.72;;;0.53;97.42
24486;BME280;13449;49.374;8.584;2023-03-03T00:48:18;100823.88;;;0.58;100.00
24486;BME280;13449;49.374;8.584;2023-03-03T00:50:46;100831.41;;;0.53;100.00
24486;BME280;13449;49.374;8.584;2023-03-03T00:53:14;100826.81;;;0.42;98.76
24486;BME280;13449;49.374;8.584;2023-03-03T00:55:46;100829.50;;;0.42;98.00
24486;BME280;13449;49.374;8.584;2023-03-03T00:58:12;100828.25;;;0.35;99.05
24486;BME280;13449;49.374;8.584;2023-03-03T01:00:42;100835.09;;;0.39;100.00
24486;BME280;13449;49.374;8.584;2023-03-03T01:03:17;100833.38;;;0.38;100.00
24486;BME280;13449;49.374;8.584;2023-03-03T01:05:44;100832.72;;;0.47;100.00
24486;BME280;13449;49.374;8.584;2023-03-03T01:08:10;100829.19;;;0.70;99.75
24486;BME280;13449;49.374;8.584;2023-03-03T01:10:41;100831.22;;;0.43;97.91
24486;BME280;13449;49.374;8.584;2023-03-03T01:13:10;100830.19;;;0.33;97.35
24486;BME280;13449;49.374;8.584;2023-03-03T01:15:38;100833.63;;;0.35;99.12
24486;BME280;13449;49.374;8.584;2023-03-03T01:18:06;100830.53;;;0.28;98.19
24486;BME280;13449;49.374;8.584;2023-03-03T01:20:36;100827.53;;;0.20;98.39
24486;BME280;13449;49.374;8.584;2023-03-03T01:23:05;100826.38;;;0.12;97.37
24486;BME280;13449;49.374;8.584;2023-03-03T01:25:32;100827.38;;;0.11;98.67
24486;BME280;13449;49.374;8.584;2023-03-03T01:28:02;100834.97;;;0.04;98.42
24486;BME280;13449;49.374;8.584;2023-03-03T01:30:31;100822.13;;;-0.04;97.45
24486;BME280;13449;49.374;8.584;2023-03-03T01:33:00;100818.81;;;-0.07;99.30
24486;BME280;13449;49.374;8.584;2023-03-03T01:35:29;100824.31;;;-0.09;99.57
24486;BME280;13449;49.374;8.584;2023-03-03T01:37:57;100819.16;;;-0.12;99.27
24486;BME280;13449;49.374;8.584;2023-03-03T01:40:27;100820.66;;;-0.08;100.00
24486;BME280;13449;49.374;8.584;2023-03-03T01:42:53;100825.81;;;-0.17;100.00
24486;BME280;13449;49.374;8.584;2023-03-03T01:45:24;100824.53;;;-0.12;100.00
24486;BME280;13449;49.374;8.584;2023-03-03T01:48:04;100828.28;;;-0.27;100.00
24486;BME280;13449;49.374;8.584;2023-03-03T01:50:40;100823.56;;;-0.23;100.00
24486;BME280;13449;49.374;8.584;2023-03-03T01:53:14;100822.22;;;0.08;100.00
24486;BME280;13449;49.374;8.584;2023-03-03T01:55:41;100829.41;;;0.07;100.00
24486;BME280;13449;49.374;8.584;2023-03-03T01:58:19;100825.91;;;-0.19;100.00
24486;BME280;13449;49.374;8.584;2023-03-03T02:00:50;100829.91;;;-0.24;100.00
24486;BME280;13449;49.374;8.584;2023-03-03T02:03:22;100817.44;;;-0.25;100.00
24486;BME280;13449;49.374;8.584;2023-03-03T02:05:51;100817.91;;;-0.31;100.00
24486;BME280;13449;49.374;8.584;2023-03-03T02:08:24;100820.03;;;-0.36;100.00
24486;BME280;13449;49.374;8.584;2023-03-03T02:10:54;100825.72;;;-0.41;100.00
24486;BME280;13449;49.374;8.584;2023-03-03T02:13:22;100814.25;;;-0.43;100.00
24486;BME280;13449;49.374;8.584;2023-03-03T02:15:49;100824.34;;;-0.46;100.00
24486;BME280;13449;49.374;8.584;2023-03-03T02:18:18;100820.16;;;-0.51;100.00
24486;BME280;13449;49.374;8.584;2023-03-03T02:28:37;100817.47;;;-0.63;100.00
24486;BME280;13449;49.374;8.584;2023-03-03T02:31:08;100824.53;;;-0.62;100.00
24486;BME280;13449;49.374;8.584;2023-03-03T02:33:57;100820.91;;;-0.61;100.00
24486;BME280;13449;49.374;8.584;2023-03-03T02:36:30;100828.72;;;-0.71;100.00
24486;BME280;13449;49.374;8.584;2023-03-03T02:44:24;100823.69;;;-0.75;100.00
24486;BME280;13449;49.374;8.584;2023-03-03T02:46:52;100815.53;;;-0.49;100.00
24486;BME280;13449;49.374;8.584;2023-03-03T02:49:27;100823.66;;;-0.37;100.00
24486;BME280;13449;49.374;8.584;2023-03-03T02:51:54;100815.56;;;-0.61;100.00
24486;BME280;13449;49.374;8.584;2023-03-03T02:54:23;100823.25;;;-0.69;100.00
24486;BME280;13449;49.374;8.584;2023-03-03T02:56:50;100830.13;;;-0.65;100.00
24486;BME280;13449;49.374;8.584;2023-03-03T02:59:18;100830.00;;;-0.76;100.00
24486;BME280;13449;49.374;8.584;2023-03-03T03:01:46;100825.81;;;-0.80;100.00
24486;BME280;13449;49.374;8.584;2023-03-03T03:04:15;100819.59;;;-0.81;100.00
24486;BME280;13449;49.374;8.584;2023-03-03T03:06:43;100820.47;;;-0.80;100.00
24486;BME280;13449;49.374;8.584;2023-03-03T03:09:10;100818.22;;;-0.86;100.00
24486;BME280;13449;49.374;8.584;2023-03-03T03:11:37;100817.75;;;-0.93;100.00
24486;BME280;13449;49.374;8.584;2023-03-03T03:14:05;100814.44;;;-0.97;100.00
24486;BME280;13449;49.374;8.584;2023-03-03T03:16:33;100809.53;;;-1.03;100.00
24486;BME280;13449;49.374;8.584;2023-03-03T03:19:01;100809.53;;;-1.03;100.00
24486;BME280;13449;49.374;8.584;2023-03-03T03:21:31;100823.06;;;-0.79;100.00
24486;BME280;13449;49.374;8.584;2023-03-03T03:23:58;100818.75;;;-0.81;100.00
24486;BME280;13449;49.374;8.584;2023-03-03T03:26:25;100822.91;;;-0.90;100.00
24486;BME280;13449;49.374;8.584;2023-03-03T03:28:52;100820.22;;;-0.90;100.00
24486;BME280;13449;49.374;8.584;2023-03-03T03:31:21;100821.09;;;-1.02;100.00
24486;BME280;13449;49.374;8.584;2023-03-03T03:33:47;100824.81;;;-1.05;100.00
24486;BME280;13449;49.374;8.584;2023-03-03T03:36:15;100823.41;;;-1.10;100.00
24486;BME280;13449;49.374;8.584;2023-03-03T03:38:44;100826.69;;;-1.19;100.00
24486;BME280;13449;49.374;8.584;2023-03-03T03:41:11;100836.88;;;-1.12;100.00
24486;BME280;13449;49.374;8.584;2023-03-03T03:43:39;100830.44;;;-1.22;100.00
24486;BME280;13449;49.374;8.584;2023-03-03T03:46:06;100836.22;;;-1.28;100.00
24486;BME280;13449;49.374;8.584;2023-03-03T03:48:34;100852.56;;;-1.32;100.00
24486;BME280;13449;49.374;8.584;2023-03-03T03:51:03;100851.25;;;-1.39;100.00
24486;BME280;13449;49.374;8.584;2023-03-03T03:53:32;100850.59;;;-1.43;100.00
24486;BME280;13449;49.374;8.584;2023-03-03T03:55:59;100849.28;;;-1.50;100.00
24486;BME280;13449;49.374;8.584;2023-03-03T03:58:30;100843.16;;;-1.52;100.00
24486;BME280;13449;49.374;8.584;2023-03-03T04:01:04;100845.09;;;-1.54;100.00
24486;BME280;13449;49.374;8.584;2023-03-03T04:03:31;100845.28;;;-1.57;100.00
24486;BME280;13449;49.374;8.584;2023-03-03T04:05:58;100849.09;;;-1.61;100.00
24486;BME280;13449;49.374;8.584;2023-03-03T04:08:25;100849.53;;;-1.67;100.00
24486;BME280;13449;49.374;8.584;2023-03-03T04:10:52;100848.66;;;-1.68;100.00
24486;BME280;13449;49.374;8.584;2023-03-03T04:13:19;100851.91;;;-1.63;100.00
24486;BME280;13449;49.374;8.584;2023-03-03T04:15:48;100853.63;;;-1.76;100.00
24486;BME280;13449;49.374;8.584;2023-03-03T04:18:19;100851.94;;;-1.77;100.00
24486;BME280;13449;49.374;8.584;2023-03-03T04:20:49;100853.19;;;-1.82;100.00
24486;BME280;13449;49.374;8.584;2023-03-03T04:23:20;100849.84;;;-1.86;100.00
24486;BME280;13449;49.374;8.584;2023-03-03T04:25:47;100843.44;;;-1.83;100.00
24486;BME280;13449;49.374;8.584;2023-03-03T04:28:15;100841.63;;;-1.83;100.00
24486;BME280;13449;49.374;8.584;2023-03-03T04:30:41;100845.16;;;-1.82;100.00
24486;BME280;13449;49.374;8.584;2023-03-03T04:33:10;100845.44;;;-1.87;100.00
24486;BME280;13449;49.374;8.584;2023-03-03T04:35:37;100850.50;;;-1.82;100.00
24486;BME280;13449;49.374;8.584;2023-03-03T04:38:03;100853.97;;;-1.80;100.00
24486;BME280;13449;49.374;8.584;2023-03-03T04:40:31;100855.47;;;-1.76;100.00
24486;BME280;13449;49.374;8.584;2023-03-03T04:42:59;100849.75;;;-1.84;100.00
24486;BME280;13449;49.374;8.584;2023-03-03T04:45:28;100853.38;;;-1.85;100.00
24486;BME280;13449;49.374;8.584;2023-03-03T04:47:54;100855.28;;;-1.87;100.00
24486;BME280;13449;49.374;8.584;2023-03-03T04:50:23;100851.13;;;-1.91;100.00
24486;BME280;13449;49.374;8.584;2023-03-03T04:52:50;100863.91;;;-1.97;100.00
24486;BME280;13449;49.374;8.584;2023-03-03T04:55:16;100862.16;;;-1.98;100.00
24486;BME280;13449;49.374;8.584;2023-03-03T04:57:45;100871.91;;;-1.97;100.00
24486;BME280;13449;49.374;8.584;2023-03-03T05:00:14;100870.56;;;-1.89;100.00
24486;BME280;13449;49.374;8.584;2023-03-03T05:02:41;100877.53;;;-2.01;100.00
24486;BME280;13449;49.374;8.584;2023-03-03T05:05:09;100874.13;;;-2.03;100.00
24486;BME280;13449;49.374;8.584;2023-03-03T05:07:36;100882.41;;;-2.08;100.00
24486;BME280;13449;49.374;8.584;2023-03-03T05:10:02;100876.13;;;-2.07;100.00
24486;BME280;13449;49.374;8.584;2023-03-03T05:12:29;100884.22;;;-2.08;100.00
24486;BME280;13449;49.374;8.584;2023-03-03T05:14:58;100879.94;;;-2.11;100.00
24486;BME280;13449;49.374;8.584;2023-03-03T05:17:25;100880.13;;;-2.14;100.00
24486;BME280;13449;49.374;8.584;2023-03-03T05:19:51;100884.31;;;-2.10;100.00
24486;BME280;13449;49.374;8.584;2023-03-03T05:22:18;100891.19;;;-2.20;100.00
24486;BME280;13449;49.374;8.584;2023-03-03T05:24:45;100896.31;;;-2.17;100.00
24486;BME280;13449;49.374;8.584;2023-03-03T05:27:15;100893.00;;;-2.20;100.00
24486;BME280;13449;49.374;8.584;2023-03-03T05:29:42;100892.72;;;-2.16;100.00
24486;BME280;13449;49.374;8.584;2023-03-03T05:32:08;100902.81;;;-2.21;100.00
24486;BME280;13449;49.374;8.584;2023-03-03T05:34:35;100908.00;;;-2.18;100.00
24486;BME280;13449;49.374;8.584;2023-03-03T05:37:02;100910.00;;;-2.21;100.00
24486;BME280;13449;49.374;8.584;2023-03-03T05:39:32;100911.97;;;-2.25;100.00
24486;BME280;13449;49.374;8.584;2023-03-03T05:41:59;100914.47;;;-2.22;100.00
24486;BME280;13449;49.374;8.584;2023-03-03T05:44:26;100919.03;;;-2.24;100.00
24486;BME280;13449;49.374;8.584;2023-03-03T05:46:55;100920.09;;;-2.26;100.00
24486;BME280;13449;49.374;8.584;2023-03-03T05:49:23;100918.34;;;-2.27;100.00
24486;BME280;13449;49.374;8.584;2023-03-03T05:51:51;100924.56;;;-2.27;100.00
24486;BME280;13449;49.374;8.584;2023-03-03T05:54:17;100923.22;;;-2.20;100.00
24486;BME280;13449;49.374;8.584;2023-03-03T05:56:44;100930.09;;;-2.30;100.00
24486;BME280;13449;49.374;8.584;2023-03-03T05:59:10;100931.13;;;-2.32;100.00
24486;BME280;13449;49.374;8.584;2023-03-03T06:01:37;100934.56;;;-2.30;100.00
24486;BME280;13449;49.374;8.584;2023-03-03T06:04:06;100931.97;;;-2.32;100.00
24486;BME280;13449;49.374;8.584;2023-03-03T06:06:36;100939.06;;;-2.31;100.00
24486;BME280;13449;49.374;8.584;2023-03-03T06:09:04;100942.31;;;-2.26;100.00
24486;BME280;13449;49.374;8.584;2023-03-03T06:11:31;100944.97;;;-2.26;100.00
24486;BME280;13449;49.374;8.584;2023-03-03T06:13:57;100942.66;;;-2.32;100.00
24486;BME280;13449;49.374;8.584;2023-03-03T06:16:26;100945.34;;;-2.32;100.00
24486;BME280;13449;49.374;8.584;2023-03-03T06:18:53;100933.97;;;-2.35;100.00
24486;BME280;13449;49.374;8.584;2023-03-03T06:21:22;100931.91;;;-2.30;100.00
24486;BME280;13449;49.374;8.584;2023-03-03T06:23:48;100934.78;;;-2.19;100.00
24486;BME280;13449;49.374;8.584;2023-03-03T06:26:14;100940.19;;;-2.21;100.00
24486;BME280;13449;49.374;8.584;2023-03-03T06:28:41;100942.78;;;-2.19;100.00
24486;BME280;13449;49.374;8.584;2023-03-03T06:31:07;100944.13;;;-2.12;100.00
24486;BME280;13449;49.374;8.584;2023-03-03T06:33:34;100937.38;;;-2.04;100.00
24486;BME280;13449;49.374;8.584;2023-03-03T06:36:00;100927.06;;;-1.96;100.00
24486;BME280;13449;49.374;8.584;2023-03-03T06:38:30;100939.38;;;-1.93;100.00
24486;BME280;13449;49.374;8.584;2023-03-03T06:40:57;100949.09;;;-1.92;100.00
24486;BME280;13449;49.374;8.584;2023-03-03T06:43:23;100945.19;;;-1.86;100.00
24486;BME280;13449;49.374;8.584;2023-03-03T06:45:50;100948.03;;;-1.75;100.00
24486;BME280;13449;49.374;8.584;2023-03-03T06:48:17;100949.75;;;-1.74;100.00
24486;BME280;13449;49.374;8.584;2023-03-03T06:50:45;100959.50;;;-1.73;100.00
24486;BME280;13449;49.374;8.584;2023-03-03T06:53:14;100963.72;;;-1.69;100.00
24486;BME280;13449;49.374;8.584;2023-03-03T06:55:41;100955.88;;;-1.58;100.00
24486;BME280;13449;49.374;8.584;2023-03-03T06:58:18;100972.28;;;-1.50;100.00
24486;BME280;13449;49.374;8.584;2023-03-03T07:00:56;100968.84;;;-1.52;100.00
24486;BME280;13449;49.374;8.584;2023-03-03T07:03:33;100969.41;;;-1.47;100.00
24486;BME280;13449;49.374;8.584;2023-03-03T07:06:01;100971.59;;;-1.39;100.00
24486;BME280;13449;49.374;8.584;2023-03-03T07:08:31;100970.53;;;-1.37;100.00
24486;BME280;13449;49.374;8.584;2023-03-03T07:11:06;100978.72;;;-1.26;100.00
24486;BME280;13449;49.374;8.584;2023-03-03T07:13:36;100981.38;;;-0.85;100.00
24486;BME280;13449;49.374;8.584;2023-03-03T07:16:12;100975.50;;;-0.77;100.00
24486;BME280;13449;49.374;8.584;2023-03-03T07:19:21;100984.03;;;-0.58;100.00
24486;BME280;13449;49.374;8.584;2023-03-03T07:21:49;100997.22;;;-0.55;100.00
24486;BME280;13449;49.374;8.584;2023-03-03T07:24:29;100996.38;;;-0.43;100.00
24486;BME280;13449;49.374;8.584;2023-03-03T07:27:31;101004.91;;;-0.24;98.28
24486;BME280;13449;49.374;8.584;2023-03-03T07:30:38;101009.44;;;-0.12;97.93
24486;BME280;13449;49.374;8.584;2023-03-03T07:33:49;100991.66;;;0.00;98.13
24486;BME280;13449;49.374;8.584;2023-03-03T07:36:38;101001.63;;;0.11;98.18
24486;BME280;13449;49.374;8.584;2023-03-03T07:41:59;100997.66;;;0.29;97.26
24486;BME280;13449;49.374;8.584;2023-03-03T07:44:59;101009.00;;;0.45;93.82
24486;BME280;13449;49.374;8.584;2023-03-03T07:47:38;101005.66;;;0.54;95.75
24486;BME280;13449;49.374;8.584;2023-03-03T07:50:35;101004.78;;;0.66;95.15
24486;BME280;13449;49.374;8.584;2023-03-03T07:53:05;101017.97;;;0.82;92.35
24486;BME280;13449;49.374;8.584;2023-03-03T07:55:47;101019.00;;;0.92;90.72
24486;BME280;13449;49.374;8.584;2023-03-03T07:58:40;101012.22;;;0.99;93.11
24486;BME280;13449;49.374;8.584;2023-03-03T08:01:53;101013.81;;;1.02;91.76
24486;BME280;13449;49.374;8.584;2023-03-03T08:04:45;101020.41;;;1.21;88.23
24486;BME280;13449;49.374;8.584;2023-03-03T08:07:29;101021.97;;;1.36;85.36
24486;BME280;13449;49.374;8.584;2023-03-03T08:10:47;101021.16;;;1.47;84.75
24486;BME280;13449;49.374;8.584;2023-03-03T08:13:28;101022.41;;;1.54;84.26
24486;BME280;13449;49.374;8.584;2023-03-03T08:19:01;101038.63;;;1.76;84.17
24486;BME280;13449;49.374;8.584;2023-03-03T08:21:34;101055.66;;;1.88;80.64
24486;BME280;13449;49.374;8.584;2023-03-03T08:24:08;101051.19;;;2.00;80.76
24486;BME280;13449;49.374;8.584;2023-03-03T08:26:49;101052.56;;;2.05;79.92
24486;BME280;13449;49.374;8.584;2023-03-03T08:29:16;101031.16;;;2.15;80.28
24486;BME280;13449;49.374;8.584;2023-03-03T08:31:56;101051.25;;;2.33;79.03
24486;BME280;13449;49.374;8.584;2023-03-03T08:34:49;101055.06;;;2.41;80.43
24486;BME280;13449;49.374;8.584;2023-03-03T08:37:18;101061.94;;;2.46;79.17
24486;BME280;13449;49.374;8.584;2023-03-03T08:40:01;101039.56;;;2.56;80.05
24486;BME280;13449;49.374;8.584;2023-03-03T08:42:31;101053.78;;;2.69;78.86
24486;BME280;13449;49.374;8.584;2023-03-03T08:44:58;101065.00;;;2.85;78.20
24486;BME280;13449;49.374;8.584;2023-03-03T08:47:34;101071.25;;;2.86;76.25
24486;BME280;13449;49.374;8.584;2023-03-03T08:50:34;101057.44;;;2.90;76.90
24486;BME280;13449;49.374;8.584;2023-03-03T08:53:12;101050.81;;;3.06;76.86
24486;BME280;13449;49.374;8.584;2023-03-03T08:55:40;101046.63;;;3.13;77.61
24486;BME280;13449;49.374;8.584;2023-03-03T08:58:21;101062.28;;;3.30;76.08
24486;BME280;13449;49.374;8.584;2023-03-03T09:01:04;101050.03;;;3.37;76.22
24486;BME280;13449;49.374;8.584;2023-03-03T09:06:43;101069.56;;;3.61;75.13
24486;BME280;13449;49.374;8.584;2023-03-03T09:09:14;101054.47;;;3.70;75.03
24486;BME280;13449;49.374;8.584;2023-03-03T09:12:45;101057.72;;;3.84;75.02
24486;BME280;13449;49.374;8.584;2023-03-03T09:15:33;101074.13;;;3.93;75.20
24486;BME280;13449;49.374;8.584;2023-03-03T09:18:15;101080.09;;;3.96;73.63
24486;BME280;13449;49.374;8.584;2023-03-03T09:20:52;101078.94;;;4.10;73.62
24486;BME280;13449;49.374;8.584;2023-03-03T09:29:23;101071.81;;;4.50;73.70
24486;BME280;13449;49.374;8.584;2023-03-03T09:31:55;101079.03;;;4.61;73.26
24486;BME280;13449;49.374;8.584;2023-03-03T09:34:24;101075.91;;;4.65;73.35
24486;BME280;13449;49.374;8.584;2023-03-03T09:36:54;101094.28;;;4.71;71.75
24486;BME280;13449;49.374;8.584;2023-03-03T09:39:23;101102.50;;;4.70;70.97
24486;BME280;13449;49.374;8.584;2023-03-03T09:50:41;101105.44;;;5.18;70.09
24486;BME280;13449;49.374;8.584;2023-03-03T09:53:29;101110.16;;;5.16;69.46
24486;BME280;13449;49.374;8.584;2023-03-03T09:59:14;101108.97;;;5.39;68.67
24486;BME280;13449;49.374;8.584;2023-03-03T10:07:42;101125.09;;;5.60;67.10
24486;BME280;13449;49.374;8.584;2023-03-03T10:10:31;101127.09;;;5.67;66.10
24486;BME280;13449;49.374;8.584;2023-03-03T10:13:29;101134.00;;;5.81;65.97
24486;BME280;13449;49.374;8.584;2023-03-03T10:16:25;101138.28;;;5.93;66.17
24486;BME280;13449;49.374;8.584;2023-03-03T10:21:54;101149.72;;;6.16;65.20
24486;BME280;13449;49.374;8.584;2023-03-03T10:24:28;101148.28;;;6.12;64.97
24486;BME280;13449;49.374;8.584;2023-03-03T10:29:48;101136.75;;;6.19;65.37
24486;BME280;13449;49.374;8.584;2023-03-03T10:32:29;101154.00;;;6.28;64.21
24486;BME280;13449;49.374;8.584;2023-03-03T10:35:07;101161.56;;;6.34;64.56
24486;BME280;13449;49.374;8.584;2023-03-03T10:40:35;101148.44;;;6.58;64.42
24486;BME280;13449;49.374;8.584;2023-03-03T10:43:17;101157.69;;;6.65;63.77
24486;BME280;13449;49.374;8.584;2023-03-03T10:46:51;101144.03;;;6.67;64.24
24486;BME280;13449;49.374;8.584;2023-03-03T10:49:38;101138.16;;;6.71;63.90
24486;BME280;13449;49.374;8.584;2023-03-03T10:55:17;101143.41;;;6.92;63.12
24486;BME280;13449;49.374;8.584;2023-03-03T11:03:31;101146.63;;;7.15;63.08
24486;BME280;13449;49.374;8.584;2023-03-03T11:06:34;101161.81;;;7.35;62.18
24486;BME280;13449;49.374;8.584;2023-03-03T11:11:54;101160.22;;;7.42;62.03
24486;BME280;13449;49.374;8.584;2023-03-03T11:41:16;101155.53;;;7.89;60.11
24486;BME280;13449;49.374;8.584;2023-03-03T11:43:56;101143.22;;;7.95;60.26
24486;BME280;13449;49.374;8.584;2023-03-03T11:46:33;101150.44;;;8.04;60.17
24486;BME280;13449;49.374;8.584;2023-03-03T11:49:05;101148.34;;;7.98;59.96
24486;BME280;13449;49.374;8.584;2023-03-03T11:56:46;101154.44;;;8.27;58.81
24486;BME280;13449;49.374;8.584;2023-03-03T11:59:46;101157.78;;;8.21;58.78
24486;BME280;13449;49.374;8.584;2023-03-03T12:04:51;101141.31;;;8.40;58.91
24486;BME280;13449;49.374;8.584;2023-03-03T12:07:43;101156.47;;;8.43;58.18
24486;BME280;13449;49.374;8.584;2023-03-03T12:13:16;101172.06;;;8.41;58.21
24486;BME280;13449;49.374;8.584;2023-03-03T12:16:07;101152.59;;;8.45;58.23
24486;BME280;13449;49.374;8.584;2023-03-03T12:18:50;101162.22;;;8.57;57.33
24486;BME280;13449;49.374;8.584;2023-03-03T12:27:13;101148.38;;;8.68;57.67
24486;BME280;13449;49.374;8.584;2023-03-03T12:35:55;101161.53;;;8.99;56.24
24486;BME280;13449;49.374;8.584;2023-03-03T12:43:57;101137.00;;;9.16;56.35
24486;BME280;13449;49.374;8.584;2023-03-03T12:48:55;101151.34;;;9.01;55.28
24486;BME280;13449;49.374;8.584;2023-03-03T12:52:07;101161.22;;;9.02;55.36
24486;BME280;13449;49.374;8.584;2023-03-03T12:55:20;101138.78;;;9.34;55.25
24486;BME280;13449;49.374;8.584;2023-03-03T12:57:58;101167.31;;;9.21;54.48
24486;BME280;13449;49.374;8.584;2023-03-03T13:17:36;101131.19;;;9.45;54.81
24486;BME280;13449;49.374;8.584;2023-03-03T13:28:34;101131.13;;;9.29;54.83
24486;BME280;13449;49.374;8.584;2023-03-03T13:31:18;101117.91;;;9.42;55.16
24486;BME280;13449;49.374;8.584;2023-03-03T13:33:58;101122.63;;;9.32;54.57
24486;BME280;13449;49.374;8.584;2023-03-03T13:36:30;101107.63;;;9.28;55.03
24486;BME280;13449;49.374;8.584;2023-03-03T13:39:10;101108.16;;;9.32;54.67
24486;BME280;13449;49.374;8.584;2023-03-03T13:44:51;101109.13;;;9.22;55.33
24486;BME280;13449;49.374;8.584;2023-03-03T13:47:30;101097.44;;;9.30;55.54
24486;BME280;13449;49.374;8.584;2023-03-03T13:55:28;101096.75;;;9.28;55.16
24486;BME280;13449;49.374;8.584;2023-03-03T14:00:56;101095.13;;;9.43;54.76
24486;BME280;13449;49.374;8.584;2023-03-03T14:06:17;101086.59;;;9.38;54.84
24486;BME280;13449;49.374;8.584;2023-03-03T14:09:10;101078.75;;;9.35;55.25
24486;BME280;13449;49.374;8.584;2023-03-03T14:17:01;101100.44;;;9.61;53.44
24486;BME280;13449;49.374;8.584;2023-03-03T14:19:42;101094.81;;;9.54;53.64
24486;BME280;13449;49.374;8.584;2023-03-03T14:22:28;101080.16;;;9.47;54.49
24486;BME280;13449;49.374;8.584;2023-03-03T14:25:09;101074.00;;;9.37;54.56
24486;BME280;13449;49.374;8.584;2023-03-03T14:33:18;101079.28;;;9.39;53.58
24486;BME280;13449;49.374;8.584;2023-03-03T14:43:43;101079.47;;;9.45;53.38
24486;BME280;13449;49.374;8.584;2023-03-03T14:48:59;101091.75;;;9.57;52.41
24486;BME280;13449;49.374;8.584;2023-03-03T14:54:23;101068.94;;;9.50;53.38
24486;BME280;13449;49.374;8.584;2023-03-03T15:05:18;101090.06;;;9.56;52.21
24486;BME280;13449;49.374;8.584;2023-03-03T15:07:49;101080.31;;;9.46;53.26
24486;BME280;13449;49.374;8.584;2023-03-03T15:10:37;101084.28;;;9.51;52.44
24486;BME280;13449;49.374;8.584;2023-03-03T15:22:03;101061.28;;;9.54;53.26
24486;BME280;13449;49.374;8.584;2023-03-03T15:24:47;101052.94;;;9.47;53.58
24486;BME280;13449;49.374;8.584;2023-03-03T15:27:36;101055.34;;;9.50;53.31
24486;BME280;13449;49.374;8.584;2023-03-03T15:30:26;101049.88;;;9.50;53.87
24486;BME280;13449;49.374;8.584;2023-03-03T15:33:22;101055.34;;;9.50;53.90
24486;BME280;13449;49.374;8.584;2023-03-03T15:36:03;101069.63;;;9.52;52.71
24486;BME280;13449;49.374;8.584;2023-03-03T15:39:12;101059.56;;;9.45;53.55
24486;BME280;13449;49.374;8.584;2023-03-03T15:42:08;101067.72;;;9.45;53.33
24486;BME280;13449;49.374;8.584;2023-03-03T15:44:58;101053.97;;;9.46;53.62
24486;BME280;13449;49.374;8.584;2023-03-03T15:47:56;101061.25;;;9.46;53.51
24486;BME280;13449;49.374;8.584;2023-03-03T16:01:55;101052.34;;;9.28;53.90
24486;BME280;13449;49.374;8.584;2023-03-03T16:04:16;101035.94;;;9.11;54.71
24486;BME280;13449;49.374;8.584;2023-03-03T16:06:54;101046.53;;;9.14;54.23
24486;BME280;13449;49.374;8.584;2023-03-03T16:09:47;101034.03;;;9.04;54.43
24486;BME280;13449;49.374;8.584;2023-03-03T16:26:01;101036.59;;;8.71;55.44
24486;BME280;13449;49.374;8.584;2023-03-03T16:31:42;101008.94;;;8.50;56.54
24486;BME280;13449;49.374;8.584;2023-03-03T16:34:34;101027.00;;;8.59;55.61
24486;BME280;13449;49.374;8.584;2023-03-03T16:37:14;101033.22;;;8.52;55.71
24486;BME280;13449;49.374;8.584;2023-03-03T16:42:32;101018.44;;;8.29;56.61
24486;BME280;13449;49.374;8.584;2023-03-03T16:56:09;101006.34;;;7.88;57.81
24486;BME280;13449;49.374;8.584;2023-03-03T16:58:58;100996.22;;;7.72;58.75
24486;BME280;13449;49.374;8.584;2023-03-03T17:04:42;100999.31;;;7.59;59.16
24486;BME280;13449;49.374;8.584;2023-03-03T17:18:50;100993.19;;;7.12;60.13
24486;BME280;13449;49.374;8.584;2023-03-03T17:26:56;101016.09;;;7.00;60.39
24486;BME280;13449;49.374;8.584;2023-03-03T17:29:50;101022.84;;;6.87;60.28
24486;BME280;13449;49.374;8.584;2023-03-03T17:41:08;101036.19;;;6.70;59.71
24486;BME280;13449;49.374;8.584;2023-03-03T17:46:49;101044.91;;;6.64;60.10
24486;BME280;13449;49.374;8.584;2023-03-03T17:49:31;101048.63;;;6.63;60.11
24486;BME280;13449;49.374;8.584;2023-03-03T18:01:39;101048.66;;;6.35;60.81
24486;BME280;13449;49.374;8.584;2023-03-03T18:07:43;101044.28;;;6.14;61.25
24486;BME280;13449;49.374;8.584;2023-03-03T18:21:54;101071.78;;;6.10;61.10
24486;BME280;13449;49.374;8.584;2023-03-03T18:24:38;101075.50;;;6.09;60.86
24486;BME280;13449;49.374;8.584;2023-03-03T18:27:35;101071.66;;;5.92;61.47
24486;BME280;13449;49.374;8.584;2023-03-03T18:32:45;101056.63;;;5.78;61.73
24486;BME280;13449;49.374;8.584;2023-03-03T18:35:38;101066.03;;;5.74;62.02
24486;BME280;13449;49.374;8.584;2023-03-03T18:41:10;101065.88;;;5.66;61.65